Time;durP1;ratioP1;P1;durP2;ratioP2;P2;SDS_P1;SDS_P2;PMS_P1;PMS_P2;Temp;Humidity;BMP_temperature;BMP_pressure;BME280_temperature;BME280_humidity;BME280_pressure;Samples;Min_cycle;Max_cycle;Signal;HPM_P1;HPM_P2
2021/12/14 00:00:50;;;;;;;31.38;14.95;;;;;;;-0.47;67.34;100809.72;4911588;29;20383;-81
2021/12/14 00:03:21;;;;;;;35.17;15.07;;;;;;;-0.25;69.81;100820.16;4882544;29;20051;-80
2021/12/14 00:05:47;;;;;;;32.50;15.93;;;;;;;-0.63;69.39;100771.34;4899600;29;20047;-79
2021/12/14 00:08:15;;;;;;;32.80;14.75;;;;;;;-0.56;69.04;100803.25;4899716;29;20387;-78
2021/12/14 00:10:57;;;;;;;34.47;15.95;;;;;;;-0.43;69.77;100795.41;4915375;29;20425;-81
2021/12/14 00:13:44;;;;;;;33.33;15.25;;;;;;;-0.06;69.92;100827.09;4895809;29;20083;-81
2021/12/14 00:16:11;;;;;;;28.05;13.40;;;;;;;-0.11;69.40;100796.16;4912062;29;20044;-80
2021/12/14 00:18:39;;;;;;;32.97;13.75;;;;;;;0.15;69.55;100829.84;4904346;29;20043;-79
2021/12/14 00:21:19;;;;;;;24.88;11.32;;;;;;;-0.01;69.11;100800.94;4894574;29;20047;-80
2021/12/14 00:24:09;;;;;;;24.98;11.40;;;;;;;-0.03;69.07;100817.88;4898896;29;20051;-80
2021/12/14 00:26:43;;;;;;;23.77;10.63;;;;;;;0.09;68.88;100821.88;4898039;29;20043;-80
2021/12/14 00:29:14;;;;;;;20.70;9.98;;;;;;;0.18;69.83;100827.44;4916463;29;20055;-79
2021/12/14 00:31:40;;;;;;;22.23;10.27;;;;;;;0.22;68.67;100834.47;4916946;29;20036;-81
2021/12/14 00:34:08;;;;;;;26.48;11.18;;;;;;;0.16;68.29;100839.28;4909454;29;20135;-82
2021/12/14 00:36:36;;;;;;;21.75;9.82;;;;;;;0.14;68.64;100838.31;4895762;29;20051;-81
2021/12/14 00:39:10;;;;;;;20.13;9.50;;;;;;;-0.12;68.83;100789.28;4911392;29;20048;-81
2021/12/14 00:41:39;;;;;;;21.02;9.98;;;;;;;-0.07;68.22;100810.00;4910434;29;20036;-81
2021/12/14 00:44:06;;;;;;;19.77;10.18;;;;;;;-0.02;69.13;100845.25;4900812;29;20083;-82
2021/12/14 00:46:33;;;;;;;25.80;10.40;;;;;;;-0.09;67.97;100847.41;4911335;29;20131;-79
2021/12/14 00:49:07;;;;;;;22.60;10.40;;;;;;;-0.46;67.78;100825.94;4881973;29;20184;-80
2021/12/14 00:51:33;;;;;;;;;;;;;;;-0.65;67.94;100844.53;4894468;29;20040;-79
2021/12/14 00:54:02;;;;;;;20.52;9.00;;;;;;;-0.92;67.93;100826.94;4910974;29;19942;-79
2021/12/14 00:56:28;;;;;;;20.73;9.38;;;;;;;-1.22;68.37;100796.34;4895088;29;20151;-79
2021/12/14 00:58:54;;;;;;;23.63;9.85;;;;;;;-1.03;69.15;100835.66;4913239;29;20414;-81
2021/12/14 01:01:22;;;;;;;27.23;10.38;;;;;;;-0.84;69.33;100822.22;4925659;29;20048;-80
2021/12/14 01:03:52;;;;;;;21.17;10.18;;;;;;;-0.61;69.74;100832.00;4910593;29;20048;-82
2021/12/14 01:06:22;;;;;;;25.80;10.63;;;;;;;-0.36;69.71;100838.41;4910195;29;20040;-81
2021/12/14 01:08:50;;;;;;;28.00;10.73;;;;;;;-0.21;69.23;100840.00;4929984;29;20296;-79
2021/12/14 01:11:20;;;;;;;27.95;11.70;;;;;;;-0.08;69.36;100833.81;4907068;29;20138;-82
2021/12/14 01:13:57;;;;;;;30.25;10.82;;;;;;;-0.19;68.93;100829.03;4910939;29;20060;-82
2021/12/14 01:19:26;;;;;;;24.77;9.70;;;;;;;-0.27;69.72;100832.00;4894891;29;20071;-82
2021/12/14 01:23:01;;;;;;;22.67;10.00;;;;;;;-0.33;68.80;100817.22;4895960;29;20075;-80
2021/12/14 01:25:24;;;;;;;27.00;11.05;;;;;;;-0.50;68.68;100795.88;4892608;29;20074;-81
2021/12/14 01:27:52;;;;;;;25.67;10.45;;;;;;;-0.34;69.46;100825.69;4925928;29;20139;-81
2021/12/14 01:30:42;;;;;;;22.77;9.70;;;;;;;-0.29;69.15;100828.47;4894775;29;20041;-80
2021/12/14 01:33:12;;;;;;;19.73;9.15;;;;;;;-0.26;69.22;100810.72;4900495;29;20039;-80
2021/12/14 01:36:28;;;;;;;26.52;10.02;;;;;;;-0.16;69.42;100798.47;4879347;29;20075;-81
2021/12/14 01:42:05;;;;;;;23.95;9.98;;;;;;;-0.03;69.07;100794.84;4899547;29;20052;-79
2021/12/14 01:44:36;;;;;;;22.63;9.50;;;;;;;0.09;69.07;100814.22;4906969;29;20067;-82
2021/12/14 01:47:09;;;;;;;23.95;10.35;;;;;;;-0.18;68.66;100789.84;4892929;29;20060;-82
2021/12/14 01:49:47;;;;;;;26.48;10.88;;;;;;;-0.02;69.43;100817.09;4926590;29;20068;-81
2021/12/14 01:52:40;;;;;;;22.98;10.23;;;;;;;-0.07;69.16;100792.94;4894438;29;20541;-78
2021/12/14 01:55:36;;;;;;;20.08;9.20;;;;;;;0.16;69.28;100811.13;4884571;29;20037;-77
2021/12/14 01:58:05;;;;;;;22.30;9.73;;;;;;;0.18;68.41;100801.84;4907344;29;20080;-78
2021/12/14 02:00:50;;;;;;;19.08;8.82;;;;;;;0.05;68.39;100794.38;4908361;29;20075;-78
2021/12/14 02:03:34;;;;;;;22.50;9.63;;;;;;;0.07;68.86;100798.75;4911347;29;20044;-79
2021/12/14 02:06:01;;;;;;;20.40;9.50;;;;;;;0.22;68.67;100805.47;4906616;29;20044;-77
2021/12/14 02:08:33;;;;;;;18.20;8.32;;;;;;;0.27;67.99;100804.88;4916149;29;20090;-80
2021/12/14 02:11:02;;;;;;;21.33;9.43;;;;;;;0.10;68.05;100769.88;4922619;29;20072;-79
2021/12/14 02:13:52;;;;;;;20.17;9.38;;;;;;;0.28;68.63;100782.69;4889088;29;20127;-78
2021/12/14 02:16:22;;;;;;;23.38;8.63;;;;;;;0.19;68.38;100767.75;4876287;29;20460;-78
2021/12/14 02:18:52;;;;;;;20.95;9.20;;;;;;;0.36;68.07;100800.97;4891040;29;20094;-79
2021/12/14 02:21:20;;;;;;;20.77;9.32;;;;;;;0.38;68.73;100801.94;4879751;29;20045;-81
2021/12/14 02:23:52;;;;;;;18.45;9.75;;;;;;;0.27;68.18;100797.19;4879928;29;20049;-80
2021/12/14 02:26:25;;;;;;;22.75;10.02;;;;;;;0.27;67.73;100797.19;4895355;29;20036;-78
2021/12/14 02:28:53;;;;;;;20.55;10.52;;;;;;;0.11;68.30;100774.22;4861357;29;20048;-80
2021/12/14 02:31:25;;;;;;;19.70;10.02;;;;;;;0.29;68.46;100804.94;4877384;29;20045;-83
2021/12/14 02:33:55;;;;;;;19.98;8.35;;;;;;;0.25;67.54;100806.47;4894315;29;20786;-79
2021/12/14 02:36:32;;;;;;;23.17;9.30;;;;;;;0.20;67.84;100804.50;4874707;29;20052;-77
2021/12/14 02:39:08;;;;;;;52.55;18.10;;;;;;;0.07;68.34;100779.97;4876315;29;20688;-80
2021/12/14 02:41:48;;;;;;;40.58;14.90;;;;;;;0.12;68.35;100784.50;4891186;29;20072;-82
2021/12/14 02:44:24;;;;;;;26.38;12.38;;;;;;;0.27;68.06;100807.44;4889908;29;20041;-83
2021/12/14 02:46:55;;;;;;;22.92;10.15;;;;;;;0.27;68.81;100804.88;4875306;29;20195;-79
2021/12/14 02:49:25;;;;;;;20.33;9.53;;;;;;;-0.07;67.55;100761.38;4906400;29;20045;-80
2021/12/14 02:51:55;;;;;;;18.40;9.23;;;;;;;-0.03;67.76;100823.00;4875097;29;20053;-79
2021/12/14 02:54:32;;;;;;;18.10;8.68;;;;;;;-0.05;68.82;100800.72;4906291;29;20113;-80
2021/12/14 02:57:11;;;;;;;21.20;9.05;;;;;;;-0.10;68.02;100792.78;4876094;29;20049;-81
2021/12/14 02:59:39;;;;;;;18.45;8.57;;;;;;;0.17;68.36;100817.16;4904863;29;20127;-80
2021/12/14 03:02:11;;;;;;;21.67;9.15;;;;;;;-0.18;66.94;100822.25;4858773;29;20080;-81
2021/12/14 03:04:43;;;;;;;19.58;9.60;;;;;;;-0.32;66.87;100824.94;4874830;29;20051;-80
2021/12/14 03:07:12;;;;;;;28.52;11.38;;;;;;;-0.77;66.10;100811.50;4874756;29;20060;-80
2021/12/14 03:12:19;;;;;;;25.40;11.77;;;;;;;-1.01;67.82;100768.53;4876159;29;20048;-80
2021/12/14 03:14:56;;;;;;;26.67;11.40;;;;;;;-0.69;68.67;100784.69;4896176;29;20453;-80
2021/12/14 03:17:23;;;;;;;26.85;11.43;;;;;;;-0.88;67.57;100787.94;4895575;29;20048;-83
2021/12/14 03:20:04;;;;;;;21.40;11.10;;;;;;;-0.89;67.99;100803.19;4911599;29;20095;-80
2021/12/14 03:22:35;;;;;;;24.30;11.35;;;;;;;-1.23;67.32;100782.72;4928002;29;20068;-78
2021/12/14 03:25:02;;;;;;;26.73;11.63;;;;;;;-1.13;68.67;100801.97;4895814;29;20558;-79
2021/12/14 03:27:29;;;;;;;25.95;12.00;;;;;;;-0.92;69.09;100809.03;4926693;29;20379;-79
2021/12/14 03:29:57;;;;;;;31.15;14.07;;;;;;;-1.18;66.87;100780.41;4910079;29;20517;-80
2021/12/14 03:32:23;;;;;;;29.45;13.35;;;;;;;-1.10;69.02;100799.56;4909740;29;20546;-79
2021/12/14 03:34:49;;;;;;;32.13;14.10;;;;;;;-1.13;69.28;100775.53;4910583;29;20040;-80
2021/12/14 03:37:20;;;;;;;34.00;14.80;;;;;;;-0.83;69.58;100790.75;4895534;29;20067;-80
2021/12/14 03:39:59;;;;;;;30.30;14.48;;;;;;;-0.70;69.49;100800.81;4895851;29;20040;-79
2021/12/14 03:42:39;;;;;;;29.67;14.23;;;;;;;-0.61;68.86;100793.66;4903545;29;20044;-80
2021/12/14 03:45:16;;;;;;;33.05;14.95;;;;;;;-0.58;69.11;100795.47;4912259;29;20035;-78
2021/12/14 03:47:47;;;;;;;31.27;13.38;;;;;;;-0.45;69.18;100802.09;4910641;29;20091;-77
2021/12/14 03:50:23;;;;;;;31.63;13.25;;;;;;;-0.61;68.95;100805.53;4926337;29;20071;-79
2021/12/14 03:52:49;;;;;;;30.63;13.48;;;;;;;-0.61;68.77;100773.19;4895096;29;20134;-80
2021/12/14 03:55:30;;;;;;;27.48;12.63;;;;;;;-0.46;68.58;100801.25;4909607;29;20130;-78
2021/12/14 03:57:57;;;;;;;28.75;12.57;;;;;;;-0.43;68.84;100807.28;4910087;29;20047;-78
2021/12/14 04:00:34;;;;;;;27.55;12.82;;;;;;;-0.38;68.93;100798.19;4898557;29;20062;-75
2021/12/14 04:03:04;;;;;;;30.25;12.65;;;;;;;-0.25;68.41;100817.59;4928563;29;20040;-78
2021/12/14 04:06:09;;;;;;;27.85;12.25;;;;;;;-0.28;68.98;100799.53;4904785;29;20091;-79
2021/12/14 04:08:36;;;;;;;30.45;12.55;;;;;;;-0.18;68.18;100809.44;4877669;29;20507;-78
2021/12/14 04:11:05;;;;;;;31.60;13.10;;;;;;;-0.22;68.18;100822.88;4911096;29;20055;-77
2021/12/14 04:13:37;;;;;;;26.30;12.73;;;;;;;-0.11;68.78;100829.41;4897905;29;20051;-79
2021/12/14 04:16:10;;;;;;;23.75;11.98;;;;;;;-0.09;68.93;100812.47;4900304;29;20048;-76
2021/12/14 04:18:36;;;;;;;24.10;12.00;;;;;;;-0.13;68.25;100795.22;4892839;29;20419;-77
2021/12/14 04:21:04;;;;;;;26.50;13.20;;;;;;;-0.04;68.28;100816.13;4895714;29;20039;-77
2021/12/14 04:23:40;;;;;;;24.90;11.30;;;;;;;-0.14;67.95;100797.69;4909679;29;20048;-75
2021/12/14 04:26:09;;;;;;;22.27;11.30;;;;;;;0.06;68.36;100821.72;4909469;29;20659;-76
2021/12/14 04:28:47;;;;;;;25.92;13.00;;;;;;;0.00;67.63;100822.31;4877576;29;20044;-77
2021/12/14 04:31:14;;;;;;;24.25;12.05;;;;;;;-0.07;68.12;100810.84;4892246;29;20131;-78
2021/12/14 04:33:42;;;;;;;31.48;13.43;;;;;;;-0.12;67.46;100811.44;4926396;29;20086;-77
2021/12/14 04:36:12;;;;;;;28.15;13.27;;;;;;;-0.37;67.16;100799.94;4897977;29;20048;-79
2021/12/14 04:38:50;;;;;;;26.90;13.15;;;;;;;-0.49;67.60;100780.63;4909949;29;20050;-80
2021/12/14 04:52:22;;;;;;;27.83;14.32;;;;;;;-0.15;66.62;100804.50;4889023;29;20048;-78
2021/12/14 04:54:52;;;;;;;33.80;14.98;;;;;;;-0.19;67.07;100806.00;4892640;29;20072;-78
2021/12/14 04:57:36;;;;;;;33.70;15.38;;;;;;;-0.43;66.85;100808.19;4911825;29;20040;-76
2021/12/14 05:00:15;;;;;;;34.45;15.20;;;;;;;-0.32;67.45;100831.75;4912756;29;20418;-77
2021/12/14 05:02:46;;;;;;;30.05;14.38;;;;;;;-0.37;67.76;100820.41;4885581;29;20054;-76
2021/12/14 05:05:21;;;;;;;26.33;12.23;;;;;;;-0.37;67.58;100808.50;4895718;29;20051;-78
2021/12/14 05:10:53;;;;;;;28.70;11.35;;;;;;;-0.05;67.27;100841.66;4928096;29;20050;-77
2021/12/14 05:13:41;;;;;;;20.48;9.70;;;;;;;-0.07;67.10;100840.69;4927522;29;20052;-77
2021/12/14 05:16:39;;;;;;;23.02;10.10;;;;;;;-0.03;67.50;100847.75;4924476;29;20048;-75
2021/12/14 05:19:09;;;;;;;22.38;9.88;;;;;;;-0.12;66.95;100825.13;4906040;29;20052;-76
2021/12/14 05:21:47;;;;;;;21.08;9.63;;;;;;;0.08;67.43;100840.59;4900704;29;20394;-76
2021/12/14 05:24:21;;;;;;;20.73;8.93;;;;;;;-0.09;67.10;100819.28;4893082;29;20544;-78
2021/12/14 05:26:58;;;;;;;23.20;9.70;;;;;;;0.11;67.23;100840.75;4913540;29;20040;-79
2021/12/14 05:29:27;;;;;;;21.80;9.68;;;;;;;0.06;67.32;100837.09;4892536;29;20047;-79
2021/12/14 05:31:56;;;;;;;19.45;9.60;;;;;;;0.14;67.53;100833.22;4892616;29;20055;-80
2021/12/14 05:34:27;;;;;;;23.65;9.55;;;;;;;0.06;67.03;100835.38;4925927;29;20040;-78
2021/12/14 05:36:59;;;;;;;21.10;9.50;;;;;;;0.10;66.86;100844.97;4924471;29;20051;-77
2021/12/14 05:39:55;;;;;;;19.80;9.07;;;;;;;0.14;67.12;100851.13;4907835;29;20040;-77
2021/12/14 05:45:26;;;;;;;18.60;9.20;;;;;;;-0.05;67.03;100823.75;4893694;29;21086;-77
2021/12/14 05:47:56;;;;;;;20.60;9.30;;;;;;;0.14;67.44;100854.59;4879236;29;20047;-79
2021/12/14 05:50:37;;;;;;;17.13;8.40;;;;;;;0.14;66.47;100857.16;4892167;29;20052;-81
2021/12/14 05:53:06;;;;;;;18.05;8.93;;;;;;;-0.17;66.49;100836.78;4891899;29;20075;-78
2021/12/14 05:55:39;;;;;;;25.67;10.00;;;;;;;-0.13;66.94;100836.16;4927272;29;20174;-80
2021/12/14 05:58:12;;;;;;;19.08;8.90;;;;;;;-0.16;66.63;100829.19;4912974;29;20070;-78
2021/12/14 06:00:45;;;;;;;17.15;8.45;;;;;;;-0.08;66.74;100841.50;4913411;29;20048;-78
2021/12/14 06:03:32;;;;;;;19.70;9.32;;;;;;;-0.12;67.15;100822.56;4884826;29;20040;-81
2021/12/14 06:06:01;;;;;;;;;;;;;;;0.15;67.11;100858.00;4943735;29;20044;-80
2021/12/14 06:08:34;;;;;;;19.00;9.02;;;;;;;0.15;66.98;100850.31;4897555;29;19919;-81
2021/12/14 06:11:32;;;;;;;21.70;10.07;;;;;;;-0.50;66.94;100722.59;4927780;29;20048;-78
2021/12/14 06:14:23;;;;;;;25.50;10.15;;;;;;;-0.09;66.71;100794.53;4934098;29;20082;-81
2021/12/14 06:17:39;;;;;;;22.65;9.68;;;;;;;-0.55;66.97;100725.75;4925252;29;20047;-78
2021/12/14 06:20:28;;;;;;;24.75;10.07;;;;;;;-0.08;67.02;100824.44;4926754;29;20053;-78
2021/12/14 06:23:30;;;;;;;23.23;11.07;;;;;;;0.16;66.76;100841.84;4931178;29;20040;-77
2021/12/14 06:26:07;;;;;;;23.52;12.00;;;;;;;0.17;66.25;100838.50;4901909;29;20097;-78
2021/12/14 06:28:33;;;;;;;28.55;12.60;;;;;;;0.22;65.28;100856.66;4901027;29;20127;-78
2021/12/14 06:31:25;;;;;;;28.98;12.27;;;;;;;-0.01;66.47;100820.53;4899165;29;20064;-80
2021/12/14 06:34:16;;;;;;;27.02;12.07;;;;;;;0.19;66.97;100872.72;4900432;29;20103;-79
2021/12/14 06:36:49;;;;;;;25.30;11.50;;;;;;;0.20;66.26;100871.94;4914449;29;20052;-79
2021/12/14 06:39:23;;;;;;;27.00;12.55;;;;;;;-0.10;66.60;100804.72;4898342;29;20566;-79
2021/12/14 06:41:49;;;;;;;28.38;13.20;;;;;;;0.40;66.51;100866.91;4906579;29;20051;-77
2021/12/14 06:44:18;;;;;;;31.73;15.98;;;;;;;0.45;66.50;100862.91;4888241;29;20048;-78
2021/12/14 06:46:44;;;;;;;35.05;16.25;;;;;;;0.65;66.69;100871.56;4898667;29;20946;-79
2021/12/14 06:49:20;;;;;;;41.47;19.63;;;;;;;0.74;66.92;100871.13;4913366;29;20062;-78
2021/12/14 06:51:50;;;;;;;40.42;21.38;;;;;;;0.73;66.67;100877.94;4894632;29;20055;-77
2021/12/14 06:54:29;;;;;;;45.47;23.70;;;;;;;0.69;66.27;100862.34;4900310;29;20047;-80
2021/12/14 06:57:34;;;;;;;41.90;19.73;;;;;;;0.55;66.20;100880.47;4915877;29;20506;-80
2021/12/14 07:00:07;;;;;;;37.03;17.48;;;;;;;0.10;64.02;100828.75;4930349;29;20107;-78
2021/12/14 07:02:48;;;;;;;42.63;19.98;;;;;;;-0.21;63.94;100847.66;4895285;29;20588;-80
2021/12/14 07:05:36;;;;;;;44.75;21.23;;;;;;;-0.25;66.26;100835.50;4907207;29;20067;-77
2021/12/14 07:08:16;;;;;;;55.13;22.27;;;;;;;-0.19;65.63;100867.41;4882027;29;20040;-78
2021/12/14 07:10:48;;;;;;;51.65;21.73;;;;;;;-0.21;66.58;100847.66;4915754;29;20075;-80
2021/12/14 07:13:39;;;;;;;;;;;;;;;-0.16;66.17;100866.69;4917213;29;20052;-79
2021/12/14 07:16:20;;;;;;;43.00;18.30;;;;;;;-0.34;67.12;100858.94;4914311;29;19922;-78
2021/12/14 07:18:50;;;;;;;42.47;17.83;;;;;;;-0.16;66.54;100859.88;4900115;29;20047;-82
2021/12/14 07:21:34;;;;;;;32.33;14.50;;;;;;;0.15;66.83;100870.81;4917344;29;20044;-78
2021/12/14 07:24:22;;;;;;;38.55;17.40;;;;;;;0.33;66.62;100875.13;4914656;29;20040;-80
2021/12/14 07:26:51;;;;;;;35.08;16.33;;;;;;;0.47;66.78;100874.09;4932478;29;21096;-76
2021/12/14 07:29:24;;;;;;;39.95;17.25;;;;;;;0.48;66.07;100863.06;4910357;29;20588;-79
2021/12/14 07:31:55;;;;;;;32.75;15.70;;;;;;;0.57;65.44;100858.38;4921398;29;20043;-76
2021/12/14 07:34:21;;;;;;;33.47;14.88;;;;;;;0.75;66.08;100871.19;4930266;29;20047;-77
2021/12/14 07:36:47;;;;;;;31.77;14.43;;;;;;;0.78;66.76;100849.97;4917094;29;20048;-80
2021/12/14 07:39:15;;;;;;;35.78;15.15;;;;;;;0.89;65.73;100884.69;4887351;29;20450;-80
2021/12/14 07:41:43;;;;;;;34.08;14.55;;;;;;;0.87;66.13;100882.88;4905473;29;20051;-77
2021/12/14 07:44:40;;;;;;;37.05;15.05;;;;;;;0.89;65.43;100886.34;4919507;29;20046;-76
2021/12/14 07:47:19;;;;;;;33.42;14.25;;;;;;;0.87;65.52;100865.78;4919148;29;20455;-77
2021/12/14 07:49:55;;;;;;;27.85;12.65;;;;;;;1.13;65.25;100886.66;4900133;29;20044;-77
2021/12/14 07:52:32;;;;;;;25.67;12.38;;;;;;;1.14;65.70;100860.19;4917570;29;20040;-80
2021/12/14 07:55:10;;;;;;;27.83;12.35;;;;;;;0.92;64.60;100840.38;4919761;29;20442;-80
2021/12/14 07:57:39;;;;;;;30.05;13.13;;;;;;;0.92;65.20;100848.06;4923570;29;20041;-80
2021/12/14 08:00:39;;;;;;;24.40;12.52;;;;;;;1.22;65.46;100881.06;4898498;29;20071;-79
2021/12/14 08:03:12;;;;;;;26.67;11.10;;;;;;;0.48;64.88;100704.25;4900188;29;20059;-79
2021/12/14 08:06:57;;;;;;;24.98;11.18;;;;;;;0.62;64.53;100724.50;4928467;29;20079;-81
2021/12/14 08:09:48;;;;;;;22.95;10.73;;;;;;;1.16;64.84;100809.88;4794001;29;20116;-79
2021/12/14 08:12:32;;;;;;;23.38;11.15;;;;;;;1.73;64.40;100887.63;4851507;29;20087;-80
2021/12/14 08:15:11;;;;;;;24.88;11.52;;;;;;;1.76;64.41;100885.19;4900680;29;20056;-80
2021/12/14 08:18:09;;;;;;;25.30;12.93;;;;;;;1.79;64.13;100890.44;4912278;29;20530;-81
2021/12/14 08:21:00;;;;;;;29.80;11.98;;;;;;;1.74;64.15;100897.94;4926791;29;20098;-77
2021/12/14 08:23:40;;;;;;;26.98;12.95;;;;;;;1.63;63.90;100865.81;4907233;29;20058;-78
2021/12/14 08:26:09;;;;;;;27.92;11.52;;;;;;;1.66;63.48;100878.75;4914425;29;20052;-77
2021/12/14 08:29:16;;;;;;;24.80;11.43;;;;;;;1.42;64.23;100856.34;4923679;29;20104;-81
2021/12/14 08:31:57;;;;;;;22.45;10.15;;;;;;;1.36;64.01;100858.63;4899330;29;20045;-76
2021/12/14 08:34:32;;;;;;;25.13;11.98;;;;;;;1.52;63.76;100890.09;4911427;29;20055;-81
2021/12/14 08:37:08;;;;;;;23.27;10.88;;;;;;;1.32;63.49;100864.41;4911299;29;20063;-78
2021/12/14 08:39:45;;;;;;;26.50;12.23;;;;;;;1.46;64.01;100886.44;4912193;29;20048;-77
2021/12/14 08:42:30;;;;;;;30.13;12.20;;;;;;;1.60;63.94;100893.91;4920518;29;20040;-76
2021/12/14 08:44:59;;;;;;;26.25;12.45;;;;;;;1.69;64.16;100894.28;4942854;29;20040;-77
2021/12/14 08:47:28;;;;;;;25.58;11.43;;;;;;;1.64;62.88;100891.53;4903876;29;20841;-80
2021/12/14 08:49:55;;;;;;;23.58;11.90;;;;;;;1.56;63.72;100892.84;4880847;29;20534;-81
2021/12/14 08:52:23;;;;;;;27.10;13.35;;;;;;;1.26;62.76;100874.38;4919359;29;20498;-79
2021/12/14 08:54:49;;;;;;;28.02;12.35;;;;;;;1.01;62.93;100852.72;4912363;29;20048;-75
2021/12/14 08:57:18;;;;;;;29.42;13.52;;;;;;;1.25;63.33;100888.91;4911348;29;20040;-80
2021/12/14 08:59:49;;;;;;;24.60;12.43;;;;;;;1.35;63.39;100877.38;4896320;29;20095;-81
2021/12/14 09:02:17;;;;;;;26.33;12.55;;;;;;;1.61;62.98;100883.69;4912756;29;20060;-80
2021/12/14 09:05:04;;;;;;;27.42;12.25;;;;;;;1.84;63.12;100878.69;4914767;29;20071;-74
2021/12/14 09:07:31;;;;;;;22.65;11.30;;;;;;;1.95;62.69;100876.59;4912575;29;20139;-77
2021/12/14 09:09:59;;;;;;;22.95;11.77;;;;;;;2.01;62.82;100858.91;4896707;29;20074;-77
2021/12/14 09:12:35;;;;;;;24.00;12.13;;;;;;;2.28;62.69;100884.00;4918095;29;20503;-80
2021/12/14 09:15:11;;;;;;;22.70;10.48;;;;;;;2.43;62.68;100888.03;4914038;29;20131;-79
2021/12/14 09:17:37;;;;;;;24.92;10.98;;;;;;;2.34;62.11;100857.69;4913765;29;20549;-80
2021/12/14 09:20:35;;;;;;;23.85;10.93;;;;;;;2.58;62.42;100880.94;4914057;29;20047;-79
2021/12/14 09:23:11;;;;;;;22.33;11.60;;;;;;;2.48;61.91;100876.25;4915528;29;20044;-80
2021/12/14 09:25:38;;;;;;;32.05;12.63;;;;;;;2.48;62.52;100884.81;4912675;29;20052;-76
2021/12/14 09:28:04;;;;;;;27.75;13.20;;;;;;;2.64;62.01;100890.63;4906172;29;20075;-79
2021/12/14 09:30:35;;;;;;;28.27;13.27;;;;;;;2.62;61.48;100887.97;4919997;29;20044;-78
2021/12/14 09:33:02;;;;;;;25.50;13.00;;;;;;;2.41;61.58;100840.00;4937698;29;20036;-78
2021/12/14 09:35:31;;;;;;;25.23;12.07;;;;;;;2.69;61.37;100877.13;4921052;29;20064;-79
2021/12/14 09:37:58;;;;;;;27.50;12.52;;;;;;;2.47;61.46;100871.94;4908066;29;20092;-77
2021/12/14 09:40:31;;;;;;;27.52;13.05;;;;;;;2.46;61.20;100870.16;4922757;29;20044;-83
2021/12/14 09:42:58;;;;;;;27.50;12.60;;;;;;;2.17;61.44;100837.31;4904594;29;20040;-80
2021/12/14 09:45:35;;;;;;;29.80;13.05;;;;;;;2.34;60.98;100863.69;4902454;29;20075;-80
2021/12/14 09:48:03;;;;;;;28.20;12.20;;;;;;;2.37;60.17;100862.97;4921796;29;20043;-78
2021/12/14 09:50:32;;;;;;;26.63;12.98;;;;;;;2.36;61.14;100856.94;4924068;29;20067;-80
2021/12/14 09:53:02;;;;;;;26.25;14.20;;;;;;;2.44;60.90;100876.94;4929452;29;20036;-77
2021/12/14 09:55:33;;;;;;;32.50;14.38;;;;;;;2.49;61.14;100883.16;4915127;29;20103;-78
2021/12/14 09:58:05;;;;;;;32.75;14.30;;;;;;;2.36;60.47;100863.78;4922312;29;20083;-82
2021/12/14 10:00:43;;;;;;;30.10;14.45;;;;;;;2.46;60.58;100870.16;4925068;29;20047;-80
2021/12/14 10:03:10;;;;;;;33.13;14.10;;;;;;;2.34;60.37;100845.72;4912047;29;20043;-78
2021/12/14 10:06:11;;;;;;;29.95;13.98;;;;;;;2.53;60.66;100870.47;4918894;29;20063;-79
2021/12/14 10:08:44;;;;;;;;;;;;;;;2.59;60.78;100869.84;4898466;29;20044;-78
2021/12/14 10:11:24;;;;;;;27.75;13.23;;;;;;;2.66;60.62;100868.38;4903892;29;19927;-79
2021/12/14 10:13:52;;;;;;;26.42;13.18;;;;;;;2.48;60.15;100838.56;4899256;29;20420;-82
2021/12/14 10:16:19;;;;;;;27.95;13.02;;;;;;;2.43;60.11;100839.19;4915391;29;20040;-80
2021/12/14 10:18:52;;;;;;;28.73;13.88;;;;;;;2.45;60.33;100847.84;4896094;29;20047;-80
2021/12/14 10:21:25;;;;;;;34.83;15.40;;;;;;;2.55;59.56;100865.38;4929041;29;20084;-77
2021/12/14 10:23:52;;;;;;;32.97;15.43;;;;;;;2.38;59.71;100846.72;4906943;29;20044;-79
2021/12/14 10:26:21;;;;;;;36.53;16.50;;;;;;;2.29;59.94;100836.06;4910520;29;20047;-82
2021/12/14 10:28:51;;;;;;;37.40;16.45;;;;;;;2.54;59.84;100874.81;4921419;29;20043;-80
2021/12/14 10:31:44;;;;;;;33.97;13.85;;;;;;;2.62;60.13;100882.81;4922873;29;20048;-80
2021/12/14 10:34:14;;;;;;;;;;;;;;;2.62;59.50;100872.53;4909167;29;20056;-80
2021/12/14 10:36:45;;;;;;;27.38;12.48;;;;;;;2.44;59.90;100848.66;4919355;29;19919;-78
2021/12/14 10:39:36;;;;;;;28.30;12.77;;;;;;;2.59;59.91;100874.97;4912543;29;20040;-79
2021/12/14 10:45:02;;;;;;;29.20;13.20;;;;;;;2.50;59.83;100859.22;4895597;29;20044;-79
2021/12/14 10:47:30;;;;;;;28.42;14.02;;;;;;;2.50;59.91;100859.22;4897957;29;20442;-79
2021/12/14 10:50:01;;;;;;;32.78;13.98;;;;;;;2.61;59.38;100870.78;4915533;29;20048;-77
2021/12/14 10:52:31;;;;;;;28.65;14.30;;;;;;;2.29;59.60;100802.66;4919518;29;20078;-78
2021/12/14 10:55:06;;;;;;;30.05;14.02;;;;;;;2.43;59.59;100867.47;4930161;29;20068;-79
2021/12/14 10:57:34;;;;;;;32.80;15.68;;;;;;;2.33;59.55;100851.66;4936930;29;20052;-77
2021/12/14 11:00:04;;;;;;;26.85;14.05;;;;;;;2.29;59.66;100834.38;4905925;29;20072;-79
2021/12/14 11:02:38;;;;;;;30.98;14.13;;;;;;;2.23;59.09;100826.41;4905869;29;20035;-79
2021/12/14 11:05:05;;;;;;;27.23;13.45;;;;;;;2.54;59.18;100872.22;4937998;29;20052;-77
2021/12/14 11:07:39;;;;;;;26.88;13.73;;;;;;;2.46;59.92;100845.34;4934742;29;20064;-76
2021/12/14 11:10:12;;;;;;;29.15;13.82;;;;;;;2.61;59.50;100870.78;4936947;29;20048;-77
2021/12/14 11:12:43;;;;;;;29.67;13.15;;;;;;;2.56;59.64;100878.31;4935926;29;20051;-79
2021/12/14 11:15:21;;;;;;;26.13;13.20;;;;;;;2.52;59.64;100880.72;4933418;29;20092;-79
2021/12/14 11:18:11;;;;;;;29.08;13.68;;;;;;;2.32;59.02;100857.59;4942674;29;20040;-80
2021/12/14 11:20:49;;;;;;;28.67;13.52;;;;;;;2.37;59.01;100876.66;4907731;29;20041;-79
2021/12/14 11:23:20;;;;;;;30.55;14.50;;;;;;;2.21;59.29;100871.72;4923678;29;20113;-77
2021/12/14 11:25:52;;;;;;;30.30;13.07;;;;;;;2.18;59.40;100861.28;4910006;29;20052;-79
2021/12/14 11:28:20;;;;;;;;;;;;;;;2.25;59.75;100860.75;4881824;29;20047;-80
2021/12/14 11:30:46;;;;;;;29.02;12.88;;;;;;;2.18;59.79;100858.72;4923539;29;20405;-79
2021/12/14 11:33:25;;;;;;;32.72;14.77;;;;;;;2.10;59.28;100855.84;4920563;29;20063;-79
2021/12/14 11:36:03;;;;;;;28.40;14.05;;;;;;;2.11;59.58;100848.19;4905472;29;20100;-79
2021/12/14 11:38:32;;;;;;;31.58;14.13;;;;;;;2.05;59.49;100839.34;4918137;29;20466;-80
2021/12/14 11:41:03;;;;;;;31.52;14.32;;;;;;;2.05;59.79;100840.25;4921010;29;20040;-76
2021/12/14 11:43:30;;;;;;;34.75;14.02;;;;;;;1.93;59.20;100826.88;4921764;29;20048;-78
2021/12/14 11:46:06;;;;;;;30.48;13.98;;;;;;;2.01;59.25;100840.94;4904518;29;20111;-80
2021/12/14 11:48:36;;;;;;;30.15;14.30;;;;;;;2.01;59.25;100846.06;4935921;29;20528;-80
2021/12/14 11:51:05;;;;;;;35.08;14.45;;;;;;;1.76;59.00;100803.94;4918727;29;20094;-78
2021/12/14 11:53:32;;;;;;;38.55;16.17;;;;;;;1.92;59.16;100845.66;4908139;29;20067;-78
2021/12/14 11:56:07;;;;;;;32.83;14.00;;;;;;;1.93;59.35;100853.44;4903360;29;20144;-79
2021/12/14 11:58:40;;;;;;;35.95;15.93;;;;;;;1.79;59.28;100823.72;4888003;29;20533;-81
2021/12/14 12:01:09;;;;;;;34.90;15.35;;;;;;;1.80;59.78;100846.91;4921654;29;20052;-79
2021/12/14 12:03:56;;;;;;;34.15;14.50;;;;;;;1.77;59.69;100849.31;4922792;29;20120;-81
2021/12/14 12:09:30;;;;;;;32.60;15.35;;;;;;;1.80;59.83;100851.13;4927803;29;20048;-77
2021/12/14 12:12:06;;;;;;;28.98;14.95;;;;;;;1.75;59.92;100850.94;4926925;29;20047;-78
2021/12/14 12:14:58;;;;;;;33.80;15.65;;;;;;;1.74;60.00;100849.19;4884203;29;20041;-75
2021/12/14 12:17:40;;;;;;;37.40;15.98;;;;;;;1.72;59.54;100849.94;4886964;29;20049;-79
2021/12/14 12:20:09;;;;;;;;;;;;;;;1.71;59.31;100850.75;4866423;29;20090;-77
2021/12/14 12:22:45;;;;;;;34.28;15.50;;;;;;;1.61;59.98;100849.47;4868843;29;20056;-79
2021/12/14 12:25:20;;;;;;;42.72;20.73;;;;;;;1.49;59.80;100850.66;4899536;29;20077;-80